Αρχική σελίδα
METAR-TAF:

METAR-TAF

Αεροδρόμια :

Απία, Upolu, Σαμόα

γεωγραφικό πλάτος: 13-49S, γεωγραφικό μήκος: 172-00W, υψόμετρο: 5 μ

Παρών καιρός

Η αναφορά έγινε 54 λεπτά πριν, στις 00:00 UTC
Άνεμος 4 kt από Δ/ΝΔ
Θερμοκρασία 31°C
Υγρασία 75%
Πίεση 1012 hPa
Ορατότητα 10 χλμ και άνω
Αρκετά νέφη σε ύψος 2000 πόδια

METAR: NSFA 150000Z 24004KT 9999 BKN020 31/26 Q1012

Χρόνος: 13:54 (00:54 UTC)

Πρόγνωση Καιρού

Η αναφορά έγινε 1 ώρα και 44 λεπτά πριν, στις 23:10 UTC
Η πρόγνωση ισχύει από τις 15 στις 00 UTC έως τις 15 στις 24 UTC
Άνεμος 9 kt από Α
Ορατότητα 10 χλμ και άνω
Διάσπαρτα νέφη σε ύψος 2200 πόδια
Πιθανότητα 40% :
Προσωρινά
από 15 στις 03 UTC έως τις 15 στις 24 UTC
Ορατότητα: 5000 μ
Λίγα νέφη σε ύψος 1800 πόδια, Σωρειτομελανίτες.
καταιγίδα, βροχή,

TAF: NSFA 142310Z 1500/1524 09009KT 9999 SCT022 PROB40 TEMPO 1503/1524 5000 TSRA FEW018CB

Μετεωρολογικές αναφορές και προγνώσεις για περισσότερα από 4000 αεροδρόμια (δελτία METAR και TAF).

Οι διαθέσιμοι σταθμοί απεικονίζονται στο χάρτη με κίτρινες και κόκκινες κουκκίδες.

Μετακινήστε το ποντίκι πάνω από τις κουκκίδες για να δείτε το όνομα του σταθμού.

Στη συνέχεια, κάντε κλικ για να δείτε τις μετεωρολογικές αναφορές και τις προγνώσεις καιρού.

Για να αλλάξετε το χάρτη: κάντε κλικ στα πράσινα κουμπιά με τον μαύρο σταυρό για να ζουμάρετε, στο πράσινο κουμπί με την παύλα για να αφαιρέσετε το ζουμ ή στα πράσινα βέλη για να αντιπαραβάλλετε χάρτες.


METAR-TAF: